Time;durP1;ratioP1;P1;durP2;ratioP2;P2;SDS_P1;SDS_P2;PMS_P1;PMS_P2;Temp;Humidity;BMP_temperature;BMP_pressure;BME280_temperature;BME280_humidity;BME280_pressure;Samples;Min_cycle;Max_cycle;Signal;HPM_P1;HPM_P2
2024/04/02 00:01:27;;;;;;;2.88;2.42;;;10.50;99.90;;;;;;5033615;28;20583;-73
2024/04/02 00:03:53;;;;;;;1.88;1.70;;;10.50;99.90;;;;;;5034241;28;20204;-75
2024/04/02 00:06:20;;;;;;;1.98;1.88;;;10.50;99.90;;;;;;5033688;28;20259;-74
2024/04/02 00:08:46;;;;;;;3.28;2.13;;;10.50;99.90;;;;;;5033644;28;20294;-73
2024/04/02 00:11:14;;;;;;;1.80;1.70;;;10.50;99.90;;;;;;5033876;28;20598;-73
2024/04/02 00:13:40;;;;;;;2.28;1.95;;;10.50;99.90;;;;;;5033453;28;20231;-73
2024/04/02 00:16:07;;;;;;;4.80;1.70;;;10.40;99.90;;;;;;5033497;28;20239;-73
2024/04/02 00:18:33;;;;;;;1.70;1.60;;;10.50;99.90;;;;;;5033179;28;20683;-74
2024/04/02 00:21:01;;;;;;;2.17;1.95;;;10.40;99.90;;;;;;5033318;28;20252;-73
2024/04/02 00:23:27;;;;;;;2.10;1.90;;;10.50;99.90;;;;;;5033257;28;20283;-72
2024/04/02 00:26:00;;;;;;;1.58;1.48;;;10.40;99.90;;;;;;5032493;28;20232;-74
2024/04/02 00:28:33;;;;;;;1.60;1.50;;;10.50;99.90;;;;;;5033442;28;20626;-74
2024/04/02 00:31:01;;;;;;;1.52;1.42;;;10.40;99.90;;;;;;5033401;28;20203;-73
2024/04/02 00:33:30;;;;;;;1.60;1.50;;;10.40;99.90;;;;;;5033059;28;20234;-73
2024/04/02 00:36:07;;;;;;;1.52;1.50;;;10.40;99.90;;;;;;5033460;28;20207;-73
2024/04/02 00:38:34;;;;;;;1.90;1.80;;;10.40;99.90;;;;;;5033222;28;20204;-73
2024/04/02 00:41:01;;;;;;;1.95;1.50;;;10.40;99.90;;;;;;5033227;28;20231;-74
2024/04/02 00:43:33;;;;;;;1.60;1.50;;;10.30;99.90;;;;;;5032849;28;20619;-74
2024/04/02 00:46:02;;;;;;;1.77;1.67;;;10.30;99.90;;;;;;5033454;28;20211;-74
2024/04/02 00:48:28;;;;;;;1.63;1.60;;;10.30;99.90;;;;;;5032961;28;20212;-74
2024/04/02 00:50:55;;;;;;;1.70;1.60;;;10.30;99.90;;;;;;5032806;28;20227;-74
2024/04/02 00:53:22;;;;;;;1.67;1.58;;;10.30;99.90;;;;;;5032961;28;20232;-74
2024/04/02 00:55:50;;;;;;;4.22;1.73;;;10.30;99.90;;;;;;5032625;28;20297;-74
2024/04/02 00:58:16;;;;;;;1.60;1.50;;;10.30;99.90;;;;;;5032605;28;20196;-74
2024/04/02 01:00:50;;;;;;;2.13;1.70;;;10.20;99.90;;;;;;5032880;28;20227;-73
2024/04/02 01:03:17;;;;;;;3.20;1.70;;;10.20;99.90;;;;;;5032951;28;20193;-73
2024/04/02 01:05:49;;;;;;;3.47;1.50;;;10.20;99.90;;;;;;5033325;28;20204;-74
2024/04/02 01:08:15;;;;;;;1.50;1.40;;;10.10;99.90;;;;;;5032946;28;20615;-74
2024/04/02 01:10:43;;;;;;;1.60;1.50;;;10.10;99.90;;;;;;5032540;28;20284;-74
2024/04/02 01:13:09;;;;;;;2.67;1.58;;;10.10;99.90;;;;;;5032575;28;20520;-73
2024/04/02 01:15:36;;;;;;;1.60;1.50;;;10.00;99.90;;;;;;5032928;28;20200;-73
2024/04/02 01:18:07;;;;;;;2.15;1.48;;;10.00;99.90;;;;;;5032583;28;20678;-74
2024/04/02 01:20:34;;;;;;;3.40;1.77;;;10.00;99.90;;;;;;5032772;28;20227;-74
2024/04/02 01:23:01;;;;;;;1.77;1.67;;;10.00;99.90;;;;;;5032735;28;20298;-73
2024/04/02 01:25:30;;;;;;;1.52;1.42;;;10.00;99.90;;;;;;5032800;28;20262;-72
2024/04/02 01:27:57;;;;;;;1.25;1.25;;;10.00;99.90;;;;;;5032485;28;20727;-73
2024/04/02 01:30:23;;;;;;;1.58;1.48;;;10.00;99.90;;;;;;5032992;28;20291;-73
2024/04/02 01:32:51;;;;;;;1.70;1.50;;;9.90;99.90;;;;;;5032807;28;20282;-74
2024/04/02 01:35:17;;;;;;;1.48;1.42;;;9.90;99.90;;;;;;5032590;28;20564;-73
2024/04/02 01:37:45;;;;;;;2.20;1.45;;;9.90;99.90;;;;;;5034337;28;20206;-74
2024/04/02 01:40:11;;;;;;;1.83;1.73;;;9.90;99.90;;;;;;5036203;28;20251;-73
2024/04/02 01:42:44;;;;;;;1.50;1.40;;;9.80;99.90;;;;;;5036600;28;20206;-73
2024/04/02 01:45:12;;;;;;;2.42;1.58;;;9.80;99.90;;;;;;5036483;28;20517;-74
2024/04/02 01:47:39;;;;;;;3.28;2.10;;;9.80;99.90;;;;;;5036170;28;20245;-73
2024/04/02 01:50:06;;;;;;;1.60;1.42;;;9.80;99.90;;;;;;5036090;28;20231;-73
2024/04/02 01:52:32;;;;;;;1.35;1.25;;;9.70;99.90;;;;;;5036327;28;20227;-74
2024/04/02 01:54:58;;;;;;;1.67;1.58;;;9.70;99.90;;;;;;5036009;28;20241;-73
2024/04/02 01:57:27;;;;;;;1.50;1.50;;;9.70;99.90;;;;;;5035966;28;20227;-73
2024/04/02 01:59:54;;;;;;;1.60;1.50;;;9.60;99.90;;;;;;5035819;28;20197;-72
2024/04/02 02:02:21;;;;;;;1.50;1.40;;;9.60;99.90;;;;;;5035844;28;20203;-73
2024/04/02 02:04:47;;;;;;;2.58;1.58;;;9.60;99.90;;;;;;5034510;28;20692;-73
2024/04/02 02:07:14;;;;;;;1.40;1.40;;;9.60;99.90;;;;;;5036070;28;20200;-73
2024/04/02 02:09:40;;;;;;;1.60;1.50;;;9.60;99.90;;;;;;5036127;28;20211;-73
2024/04/02 02:12:08;;;;;;;1.58;1.42;;;9.60;99.90;;;;;;5035964;28;20223;-73
2024/04/02 02:14:34;;;;;;;1.60;1.50;;;9.60;99.90;;;;;;5036000;28;20200;-74
2024/04/02 02:17:08;;;;;;;1.23;1.23;;;9.60;99.90;;;;;;5035826;28;20640;-74
2024/04/02 02:19:38;;;;;;;1.60;1.48;;;9.50;99.90;;;;;;5035645;28;20227;-73
2024/04/02 02:22:10;;;;;;;1.30;1.30;;;9.50;99.90;;;;;;5035465;28;20702;-73
2024/04/02 02:24:36;;;;;;;1.42;1.33;;;9.50;99.90;;;;;;5035345;28;20315;-73
2024/04/02 02:27:04;;;;;;;1.85;1.50;;;9.50;99.90;;;;;;5036164;28;20196;-74
2024/04/02 02:29:30;;;;;;;1.38;1.38;;;9.40;99.90;;;;;;5036177;28;20275;-73
2024/04/02 02:31:57;;;;;;;1.90;1.73;;;9.40;99.90;;;;;;5036576;28;20628;-74
2024/04/02 02:34:24;;;;;;;1.85;1.45;;;9.40;99.90;;;;;;5036078;28;20210;-74
2024/04/02 02:36:52;;;;;;;2.70;1.52;;;9.40;99.90;;;;;;5034404;28;20200;-74
2024/04/02 02:39:23;;;;;;;1.75;1.65;;;9.40;99.90;;;;;;5035283;28;20232;-73
2024/04/02 02:41:53;;;;;;;1.60;1.50;;;9.40;99.90;;;;;;5035560;28;20222;-74
2024/04/02 02:44:20;;;;;;;1.20;1.20;;;9.40;99.90;;;;;;5035218;28;20184;-74
2024/04/02 02:46:46;;;;;;;1.50;1.50;;;9.40;99.90;;;;;;5035727;28;20204;-73
2024/04/02 02:49:13;;;;;;;1.42;1.33;;;9.30;99.90;;;;;;5034350;28;20223;-73
2024/04/02 02:51:41;;;;;;;5.07;1.60;;;9.30;99.90;;;;;;5035063;28;20204;-73
2024/04/02 02:54:07;;;;;;;1.83;1.20;;;9.30;99.90;;;;;;5035193;28;20204;-73
2024/04/02 02:56:34;;;;;;;1.73;1.60;;;9.30;99.90;;;;;;5034998;28;20200;-73
2024/04/02 02:59:00;;;;;;;1.70;1.60;;;9.30;99.90;;;;;;5035244;28;20232;-74
2024/04/02 03:01:27;;;;;;;1.40;1.30;;;9.30;99.90;;;;;;5034939;28;20593;-74
2024/04/02 03:03:53;;;;;;;1.83;1.73;;;9.30;99.90;;;;;;5035338;28;20286;-73
2024/04/02 03:06:20;;;;;;;1.65;1.50;;;9.20;99.90;;;;;;5034993;28;20270;-73
2024/04/02 03:08:47;;;;;;;1.85;1.75;;;9.30;99.90;;;;;;5034825;28;20444;-73
2024/04/02 03:11:14;;;;;;;1.80;1.50;;;9.20;99.90;;;;;;5035065;28;20196;-73
2024/04/02 03:13:40;;;;;;;2.45;1.30;;;9.30;99.90;;;;;;5035052;28;20288;-73
2024/04/02 03:16:07;;;;;;;2.05;1.35;;;9.30;99.90;;;;;;5034699;28;20287;-73
2024/04/02 03:18:34;;;;;;;1.50;1.40;;;9.30;99.90;;;;;;5034093;28;20520;-73
2024/04/02 03:21:01;;;;;;;3.80;1.77;;;9.30;99.90;;;;;;5034955;28;20227;-73
2024/04/02 03:23:27;;;;;;;1.50;1.40;;;9.30;99.90;;;;;;5036716;28;20196;-73
2024/04/02 03:25:58;;;;;;;1.35;1.23;;;9.30;99.90;;;;;;5036441;28;20262;-73
2024/04/02 03:28:25;;;;;;;1.42;1.33;;;9.30;99.90;;;;;;5035315;28;20231;-73
2024/04/02 03:30:57;;;;;;;3.38;1.42;;;9.20;99.90;;;;;;5034703;28;20204;-74
2024/04/02 03:33:23;;;;;;;1.50;1.40;;;9.20;99.90;;;;;;5034813;28;20184;-74
2024/04/02 03:35:50;;;;;;;1.70;1.60;;;9.20;99.90;;;;;;5034776;28;20204;-73
2024/04/02 03:38:19;;;;;;;3.25;1.60;;;9.10;99.90;;;;;;5034798;28;20196;-71
2024/04/02 03:40:46;;;;;;;3.28;1.83;;;9.10;99.90;;;;;;5034721;28;20309;-73
2024/04/02 03:43:14;;;;;;;4.25;1.85;;;9.00;99.90;;;;;;5034706;28;20235;-74
2024/04/02 03:45:42;;;;;;;1.65;1.55;;;9.00;99.90;;;;;;5034701;28;20269;-73
2024/04/02 03:48:09;;;;;;;6.47;2.00;;;9.00;99.90;;;;;;5034008;28;20306;-73
2024/04/02 03:50:37;;;;;;;1.80;1.70;;;8.90;99.90;;;;;;5034365;28;20257;-72
2024/04/02 03:53:03;;;;;;;1.63;1.52;;;8.90;99.90;;;;;;5034296;28;20262;-74
2024/04/02 03:55:34;;;;;;;2.95;1.60;;;8.90;99.90;;;;;;5033896;28;20247;-74
2024/04/02 03:58:02;;;;;;;1.20;1.20;;;8.90;99.90;;;;;;5034237;28;20646;-73
2024/04/02 04:00:34;;;;;;;2.72;1.70;;;8.90;99.90;;;;;;5033856;28;20246;-73
2024/04/02 04:03:00;;;;;;;1.50;1.50;;;8.90;99.90;;;;;;5034335;28;20273;-74
2024/04/02 04:05:27;;;;;;;1.80;1.70;;;8.80;99.90;;;;;;5033848;28;20652;-74
2024/04/02 04:07:53;;;;;;;2.28;1.58;;;8.80;99.90;;;;;;5033934;28;20200;-74
2024/04/02 04:10:21;;;;;;;3.17;1.75;;;8.80;99.90;;;;;;5033984;28;20208;-73
2024/04/02 04:12:47;;;;;;;5.18;1.70;;;8.80;99.90;;;;;;5033478;28;20207;-73
2024/04/02 04:15:14;;;;;;;1.60;1.50;;;8.80;99.90;;;;;;5033846;28;20283;-73
2024/04/02 04:17:41;;;;;;;2.00;1.80;;;8.80;99.90;;;;;;5033248;28;20238;-74
2024/04/02 04:20:13;;;;;;;2.33;1.65;;;8.80;99.90;;;;;;5033373;28;20437;-74
2024/04/02 04:22:39;;;;;;;3.00;1.40;;;8.70;99.90;;;;;;5033409;28;20204;-73
2024/04/02 04:25:08;;;;;;;1.90;1.80;;;8.80;99.90;;;;;;5033613;28;20224;-74
2024/04/02 04:27:37;;;;;;;3.30;2.05;;;8.80;99.90;;;;;;5033337;28;20196;-74
2024/04/02 04:30:05;;;;;;;1.98;1.85;;;8.70;99.90;;;;;;5033444;28;20200;-72
2024/04/02 04:32:32;;;;;;;4.03;1.73;;;8.70;99.90;;;;;;5033178;28;20207;-72
2024/04/02 04:35:00;;;;;;;2.15;2.00;;;8.70;99.90;;;;;;5033529;28;20294;-73
2024/04/02 04:37:27;;;;;;;1.80;1.70;;;8.70;99.90;;;;;;5033312;28;20271;-73
2024/04/02 04:39:58;;;;;;;1.98;1.88;;;8.70;99.90;;;;;;5033333;28;20204;-74
2024/04/02 04:42:26;;;;;;;2.97;1.63;;;8.70;99.90;;;;;;5033277;28;20208;-74
2024/04/02 04:44:52;;;;;;;2.35;1.77;;;8.70;99.90;;;;;;5033307;28;20283;-73
2024/04/02 04:47:18;;;;;;;2.35;1.90;;;8.70;99.90;;;;;;5032940;28;20656;-73
2024/04/02 04:49:45;;;;;;;2.47;1.60;;;8.70;99.90;;;;;;5033287;28;20250;-74
2024/04/02 04:52:13;;;;;;;2.25;1.90;;;8.70;99.90;;;;;;5033104;28;20235;-73
2024/04/02 04:54:40;;;;;;;3.20;1.77;;;8.70;99.90;;;;;;5033160;28;20595;-73
2024/04/02 04:57:05;;;;;;;2.47;1.75;;;8.70;99.90;;;;;;5032712;28;20200;-72
2024/04/02 04:59:38;;;;;;;1.65;1.55;;;8.70;99.90;;;;;;5032646;28;20238;-73
2024/04/02 05:02:06;;;;;;;2.60;1.95;;;8.70;99.90;;;;;;5032908;28;20258;-73
2024/04/02 05:04:33;;;;;;;4.10;2.20;;;8.70;99.90;;;;;;5032952;28;20242;-73
2024/04/02 05:06:59;;;;;;;3.38;1.98;;;8.70;99.90;;;;;;5032889;28;20273;-73
2024/04/02 05:09:27;;;;;;;3.35;1.90;;;8.70;99.90;;;;;;5032935;28;20201;-73
2024/04/02 05:11:53;;;;;;;3.88;1.60;;;8.80;99.90;;;;;;5032551;28;20231;-72
2024/04/02 05:14:20;;;;;;;2.03;1.92;;;8.80;99.90;;;;;;5033085;28;20596;-73
2024/04/02 05:16:46;;;;;;;2.72;2.10;;;8.70;99.90;;;;;;5033301;28;20207;-73
2024/04/02 05:19:13;;;;;;;4.60;2.00;;;8.80;99.90;;;;;;5032649;28;20721;-73
2024/04/02 05:21:39;;;;;;;7.45;1.85;;;8.70;99.90;;;;;;5032638;28;20220;-73
2024/04/02 05:24:06;;;;;;;1.88;1.77;;;8.80;99.90;;;;;;5032470;28;20203;-74
2024/04/02 05:26:34;;;;;;;2.20;1.80;;;8.80;99.90;;;;;;5032185;28;20267;-74
2024/04/02 05:29:01;;;;;;;2.92;1.80;;;8.80;99.90;;;;;;5032582;28;20211;-73
2024/04/02 05:31:27;;;;;;;1.67;1.58;;;8.80;99.90;;;;;;5032230;28;20226;-74
2024/04/02 05:33:58;;;;;;;2.13;1.80;;;8.80;99.90;;;;;;5032547;28;20196;-72
2024/04/02 05:36:24;;;;;;;5.28;1.95;;;8.70;99.90;;;;;;5032748;28;20247;-73
2024/04/02 05:38:51;;;;;;;3.13;2.22;;;8.80;99.90;;;;;;5032618;28;20199;-73
2024/04/02 05:41:22;;;;;;;1.95;1.67;;;8.80;99.90;;;;;;5032550;28;20330;-74
2024/04/02 05:43:50;;;;;;;2.40;2.20;;;8.80;99.90;;;;;;5032257;28;20180;-72
2024/04/02 05:46:16;;;;;;;1.90;1.80;;;8.90;99.90;;;;;;5032206;28;20656;-73
2024/04/02 05:48:52;;;;;;;2.00;1.90;;;8.90;99.90;;;;;;5032042;28;20200;-73
2024/04/02 05:51:18;;;;;;;3.15;2.30;;;8.90;99.90;;;;;;5032349;28;20188;-74
2024/04/02 05:53:45;;;;;;;5.07;2.10;;;8.90;99.90;;;;;;5032519;28;20203;-73
2024/04/02 05:56:13;;;;;;;4.00;1.98;;;8.90;99.90;;;;;;5032438;28;20204;-73
2024/04/02 05:58:44;;;;;;;1.98;1.83;;;9.00;99.90;;;;;;5032192;28;20254;-73
2024/04/02 06:01:12;;;;;;;3.60;2.05;;;9.00;99.90;;;;;;5032099;28;20680;-74
2024/04/02 06:03:41;;;;;;;2.05;1.95;;;9.00;99.90;;;;;;5032103;28;20188;-73
2024/04/02 06:06:07;;;;;;;2.20;2.10;;;9.00;99.90;;;;;;5032319;28;20239;-73
2024/04/02 06:08:34;;;;;;;2.15;1.92;;;9.10;99.90;;;;;;5032461;28;20224;-74
2024/04/02 06:11:04;;;;;;;4.28;1.98;;;9.10;99.90;;;;;;5032175;28;20626;-73
2024/04/02 06:13:31;;;;;;;5.60;2.35;;;9.10;99.90;;;;;;5031949;28;20192;-73
2024/04/02 06:15:57;;;;;;;3.75;1.88;;;9.20;99.90;;;;;;5032287;28;20199;-73
2024/04/02 06:18:26;;;;;;;3.33;1.88;;;9.20;99.90;;;;;;5031975;28;20200;-73
2024/04/02 06:21:00;;;;;;;4.10;2.20;;;9.30;99.90;;;;;;5031988;28;20279;-73
2024/04/02 06:23:27;;;;;;;6.43;2.25;;;9.20;99.90;;;;;;5032197;28;20188;-72
2024/04/02 06:25:53;;;;;;;3.30;2.28;;;9.20;99.90;;;;;;5035241;28;20224;-74
2024/04/02 06:28:20;;;;;;;2.40;2.20;;;9.20;99.90;;;;;;5035837;28;20250;-73
2024/04/02 06:30:48;;;;;;;5.18;2.67;;;9.30;99.90;;;;;;5035577;28;20204;-74
2024/04/02 06:33:19;;;;;;;2.83;2.20;;;9.30;99.90;;;;;;5035517;28;20214;-73
2024/04/02 06:35:47;;;;;;;6.18;1.73;;;9.40;99.90;;;;;;5035447;28;20246;-73
2024/04/02 06:38:14;;;;;;;2.08;1.90;;;9.40;99.90;;;;;;5035179;28;20251;-74
2024/04/02 06:40:41;;;;;;;1.90;1.80;;;9.40;99.90;;;;;;5036269;28;20242;-74
2024/04/02 06:43:10;;;;;;;9.63;2.15;;;9.50;99.90;;;;;;5035326;28;20227;-73
2024/04/02 06:45:36;;;;;;;3.47;2.08;;;9.40;99.90;;;;;;5035465;28;20199;-73
2024/04/02 06:48:09;;;;;;;6.82;2.67;;;9.50;99.90;;;;;;5034853;28;20671;-74
2024/04/02 06:50:35;;;;;;;4.65;2.53;;;9.60;99.90;;;;;;5035379;28;20203;-74
2024/04/02 06:53:03;;;;;;;2.70;1.85;;;9.60;99.90;;;;;;5034965;28;20282;-74
2024/04/02 06:55:29;;;;;;;2.08;1.98;;;9.60;99.90;;;;;;5035438;28;20200;-74
2024/04/02 06:58:01;;;;;;;2.28;1.83;;;9.70;99.90;;;;;;5035195;28;20192;-73
2024/04/02 07:00:28;;;;;;;5.97;2.40;;;9.70;99.90;;;;;;5034963;28;20271;-74
2024/04/02 07:02:55;;;;;;;5.45;1.90;;;9.60;99.90;;;;;;5034989;28;20228;-72
2024/04/02 07:05:21;;;;;;;4.80;2.30;;;9.70;99.90;;;;;;5034828;28;20287;-74
2024/04/02 07:07:48;;;;;;;3.22;2.30;;;9.70;99.90;;;;;;5035214;28;20291;-74
2024/04/02 07:10:15;;;;;;;2.20;2.00;;;9.70;99.90;;;;;;5035060;28;20200;-74
2024/04/02 07:12:42;;;;;;;3.00;2.10;;;9.80;99.90;;;;;;5034978;28;20199;-74
2024/04/02 07:15:08;;;;;;;6.57;2.53;;;9.80;99.90;;;;;;5034530;28;20204;-74
2024/04/02 07:17:35;;;;;;;5.55;2.63;;;9.80;99.90;;;;;;5034954;28;20204;-74
2024/04/02 07:20:02;;;;;;;4.50;2.45;;;9.80;99.90;;;;;;5034742;28;20200;-74
2024/04/02 07:22:29;;;;;;;3.30;2.35;;;9.90;99.90;;;;;;5034941;28;20220;-72
2024/04/02 07:24:57;;;;;;;3.70;2.55;;;9.90;99.90;;;;;;5034772;28;20267;-73
2024/04/02 07:27:25;;;;;;;5.30;3.00;;;10.00;99.90;;;;;;5034539;28;20552;-74
2024/04/02 07:29:51;;;;;;;3.40;2.58;;;10.00;99.90;;;;;;5034489;28;20227;-73
2024/04/02 07:32:18;;;;;;;3.65;2.60;;;10.00;99.90;;;;;;5034414;28;20698;-73
2024/04/02 07:34:44;;;;;;;5.95;3.10;;;10.00;99.90;;;;;;5034037;28;20286;-74
2024/04/02 07:37:15;;;;;;;8.40;4.50;;;10.10;99.90;;;;;;5034560;28;20296;-74
2024/04/02 07:39:46;;;;;;;4.10;3.55;;;10.10;99.90;;;;;;5034925;28;20611;-74
2024/04/02 07:42:13;;;;;;;3.78;3.47;;;10.20;99.90;;;;;;5034101;28;20211;-74
2024/04/02 07:44:42;;;;;;;5.20;4.50;;;10.20;99.90;;;;;;5034281;28;20200;-74
2024/04/02 07:47:09;;;;;;;7.38;4.78;;;10.20;99.90;;;;;;5033810;28;20283;-74
2024/04/02 07:49:35;;;;;;;5.30;4.13;;;10.20;99.90;;;;;;5033656;28;20232;-74
2024/04/02 07:52:02;;;;;;;11.05;4.50;;;10.20;99.90;;;;;;5031915;28;20235;-74
2024/04/02 07:54:33;;;;;;;6.30;4.50;;;10.20;99.90;;;;;;5034054;28;20228;-73
2024/04/02 07:56:59;;;;;;;4.45;3.72;;;10.20;99.90;;;;;;5033925;28;20185;-75
2024/04/02 07:59:26;;;;;;;8.13;4.25;;;10.30;99.90;;;;;;5033920;28;20243;-74
2024/04/02 08:01:54;;;;;;;4.75;4.35;;;10.30;99.90;;;;;;5033787;28;20312;-72
2024/04/02 08:04:21;;;;;;;6.82;3.95;;;10.40;99.90;;;;;;5033888;28;20545;-74
2024/04/02 08:06:47;;;;;;;5.75;4.40;;;10.40;99.90;;;;;;5033873;28;20204;-73
2024/04/02 08:09:15;;;;;;;6.07;4.40;;;10.40;99.90;;;;;;5033438;28;20547;-74
2024/04/02 08:11:43;;;;;;;7.32;3.65;;;10.50;99.90;;;;;;5033900;28;20199;-74
2024/04/02 08:14:11;;;;;;;8.52;4.40;;;10.60;99.90;;;;;;5033692;28;20298;-73
2024/04/02 08:16:37;;;;;;;6.35;4.15;;;10.60;99.90;;;;;;5033670;28;20246;-74
2024/04/02 08:19:05;;;;;;;7.13;4.82;;;10.60;99.90;;;;;;5033129;28;20200;-75
2024/04/02 08:21:31;;;;;;;6.65;5.15;;;10.60;99.90;;;;;;5033567;28;20255;-73
2024/04/02 08:23:58;;;;;;;10.55;4.55;;;10.60;99.90;;;;;;5033648;28;20223;-74
2024/04/02 08:26:30;;;;;;;7.00;5.10;;;10.60;99.90;;;;;;5032254;28;20263;-74
2024/04/02 08:28:57;;;;;;;5.32;4.82;;;10.60;99.90;;;;;;5033310;28;20666;-74
2024/04/02 08:31:23;;;;;;;7.55;5.57;;;10.70;99.90;;;;;;5033161;28;20704;-74
2024/04/02 08:33:54;;;;;;;10.20;5.10;;;10.70;99.90;;;;;;5033437;28;20215;-75
2024/04/02 08:36:22;;;;;;;5.40;5.00;;;10.70;99.90;;;;;;5033568;28;20193;-75
2024/04/02 08:38:49;;;;;;;8.45;5.75;;;10.70;99.90;;;;;;5033423;28;20203;-74
2024/04/02 08:41:17;;;;;;;6.47;5.75;;;10.80;99.90;;;;;;5033225;28;20223;-75
2024/04/02 08:43:45;;;;;;;8.80;5.60;;;10.70;99.90;;;;;;5033234;28;20299;-74
2024/04/02 08:46:12;;;;;;;9.23;5.93;;;10.70;99.90;;;;;;5032717;28;20283;-74
2024/04/02 08:48:39;;;;;;;6.38;5.63;;;10.70;99.90;;;;;;5032532;28;20560;-74
2024/04/02 08:51:05;;;;;;;7.13;5.38;;;10.70;99.90;;;;;;5033163;28;20262;-75
2024/04/02 08:53:35;;;;;;;5.97;5.38;;;10.70;99.90;;;;;;5033281;28;20611;-74
2024/04/02 08:56:05;;;;;;;8.07;5.68;;;10.70;99.90;;;;;;5033048;28;20254;-74
2024/04/02 08:58:34;;;;;;;6.85;5.30;;;10.80;99.90;;;;;;5032734;28;20535;-75
2024/04/02 09:01:03;;;;;;;8.07;5.70;;;10.80;99.90;;;;;;5033073;28;20258;-74
2024/04/02 09:03:31;;;;;;;8.77;5.88;;;10.90;99.90;;;;;;5033020;28;20277;-74
2024/04/02 09:05:57;;;;;;;7.10;5.10;;;10.90;99.90;;;;;;5032933;28;20283;-74
2024/04/02 09:08:24;;;;;;;7.03;5.57;;;10.90;99.90;;;;;;5033026;28;20227;-74
2024/04/02 09:10:52;;;;;;;5.63;5.05;;;10.90;99.90;;;;;;5032920;28;20207;-74
2024/04/02 09:13:19;;;;;;;10.73;5.43;;;10.90;99.90;;;;;;5032614;28;20231;-74
2024/04/02 09:15:45;;;;;;;11.55;5.25;;;11.00;99.90;;;;;;5032884;28;20250;-75
2024/04/02 09:18:12;;;;;;;8.82;5.45;;;11.10;99.90;;;;;;5032291;28;20286;-74
2024/04/02 09:20:42;;;;;;;10.43;5.82;;;11.10;99.90;;;;;;5032800;28;20218;-74
2024/04/02 09:23:10;;;;;;;6.15;5.55;;;11.10;99.90;;;;;;5032763;28;20662;-74
2024/04/02 09:25:36;;;;;;;6.47;4.80;;;11.20;99.90;;;;;;5032731;28;20692;-74
2024/04/02 09:28:05;;;;;;;7.95;5.07;;;11.20;99.90;;;;;;5032774;28;20287;-74
2024/04/02 09:30:31;;;;;;;9.55;5.47;;;11.30;99.90;;;;;;5032792;28;20282;-74
2024/04/02 09:33:04;;;;;;;7.50;5.03;;;11.30;99.90;;;;;;5032607;28;20618;-73
2024/04/02 09:35:58;;;;;;;7.88;5.28;;;11.30;99.90;;;;;;5031951;28;20500;-74
2024/04/02 09:38:26;;;;;;;11.05;4.72;;;11.50;99.90;;;;;;5032638;28;20193;-74
2024/04/02 09:40:54;;;;;;;5.13;4.70;;;11.60;99.90;;;;;;5032396;28;20575;-74
2024/04/02 09:43:23;;;;;;;9.05;5.00;;;11.70;99.90;;;;;;5032237;28;20698;-74
2024/04/02 09:45:51;;;;;;;6.97;4.35;;;11.80;99.90;;;;;;5032493;28;20200;-74
2024/04/02 09:48:23;;;;;;;8.85;4.03;;;11.80;99.90;;;;;;5032053;28;20206;-74
2024/04/02 09:50:52;;;;;;;5.03;4.00;;;11.90;99.90;;;;;;5032326;28;20581;-74
2024/04/02 09:53:21;;;;;;;7.28;4.13;;;11.90;99.90;;;;;;5032206;28;20718;-74
2024/04/02 09:55:48;;;;;;;7.97;3.60;;;12.00;99.90;;;;;;5032193;28;20593;-72
2024/04/02 09:58:16;;;;;;;6.60;3.55;;;12.00;99.90;;;;;;5033425;28;20250;-74
2024/04/02 10:00:47;;;;;;;4.80;3.30;;;12.00;99.90;;;;;;5035871;28;20558;-73
2024/04/02 10:03:15;;;;;;;5.15;3.25;;;12.00;99.90;;;;;;5036224;28;20223;-74
2024/04/02 10:05:41;;;;;;;7.97;3.70;;;12.10;99.90;;;;;;5020773;22;20585;-73
2024/04/02 10:08:08;;;;;;;3.38;2.97;;;12.20;99.90;;;;;;5056535;28;20290;-73
2024/04/02 10:10:39;;;;;;;6.60;3.67;;;12.30;99.90;;;;;;5056521;28;20192;-73
2024/04/02 10:13:07;;;;;;;7.28;3.40;;;12.30;99.90;;;;;;5056429;28;20192;-73
2024/04/02 10:15:33;;;;;;;7.55;3.60;;;12.40;99.90;;;;;;5056697;28;20572;-72
2024/04/02 10:18:03;;;;;;;6.55;2.95;;;12.40;99.90;;;;;;5056472;28;20203;-74
2024/04/02 10:20:30;;;;;;;2.65;2.42;;;12.40;99.90;;;;;;5056598;28;20203;-73
2024/04/02 10:22:58;;;;;;;7.60;3.35;;;12.40;99.90;;;;;;5056524;28;20306;-73
2024/04/02 10:25:25;;;;;;;2.78;2.58;;;12.40;99.90;;;;;;5056193;28;20206;-73
2024/04/02 10:27:57;;;;;;;6.40;2.88;;;12.40;99.90;;;;;;5056449;28;20230;-73
2024/04/02 10:30:25;;;;;;;7.22;2.92;;;12.40;99.90;;;;;;5056565;28;20203;-73
2024/04/02 10:32:53;;;;;;;3.97;3.00;;;12.40;99.90;;;;;;5056028;28;20202;-73
2024/04/02 10:35:22;;;;;;;3.33;2.75;;;12.30;99.90;;;;;;5056359;28;20282;-74
2024/04/02 10:37:51;;;;;;;10.18;3.05;;;12.30;99.90;;;;;;5056323;28;20217;-73
2024/04/02 10:40:17;;;;;;;6.03;2.90;;;12.30;99.90;;;;;;5055959;28;20200;-74
2024/04/02 10:42:45;;;;;;;4.07;3.28;;;12.30;99.90;;;;;;5056049;28;20215;-73
2024/04/02 10:45:11;;;;;;;3.63;3.13;;;12.30;99.90;;;;;;5055839;28;20208;-74
2024/04/02 10:47:45;;;;;;;4.15;2.65;;;12.40;99.90;;;;;;5055892;28;20203;-72
2024/04/02 10:50:11;;;;;;;4.13;2.63;;;12.30;99.90;;;;;;5055592;28;20274;-73
2024/04/02 10:52:40;;;;;;;5.47;2.65;;;12.30;99.90;;;;;;5055695;28;20203;-72
2024/04/02 10:55:10;;;;;;;4.32;2.50;;;12.30;99.90;;;;;;5056006;28;20223;-73
2024/04/02 10:57:39;;;;;;;5.28;2.20;;;12.30;99.90;;;;;;5055642;28;20711;-73
2024/04/02 11:00:08;;;;;;;6.82;2.55;;;12.30;99.90;;;;;;5055602;28;20242;-73
2024/04/02 11:02:37;;;;;;;2.65;2.45;;;12.30;99.90;;;;;;5055463;28;20307;-73
2024/04/02 11:05:04;;;;;;;3.95;2.70;;;12.30;99.90;;;;;;5055609;28;20206;-73
2024/04/02 11:07:31;;;;;;;2.67;2.47;;;12.30;99.90;;;;;;5055518;28;20199;-73
2024/04/02 11:09:59;;;;;;;2.67;2.10;;;12.30;99.90;;;;;;5054927;28;20233;-73
2024/04/02 11:12:27;;;;;;;3.70;3.15;;;12.30;99.90;;;;;;5055389;28;20203;-72
2024/04/02 11:14:54;;;;;;;3.75;2.45;;;12.40;99.90;;;;;;5055588;28;20227;-72
2024/04/02 11:17:21;;;;;;;4.45;2.42;;;12.30;99.90;;;;;;5056026;28;20590;-72
2024/04/02 11:19:48;;;;;;;2.45;2.25;;;12.30;99.90;;;;;;5055261;28;20231;-73
2024/04/02 11:25:11;;;;;;;5.63;2.20;;;12.20;99.90;;;;;;5055279;28;20194;-73
2024/04/02 11:27:37;;;;;;;2.50;1.90;;;12.20;99.90;;;;;;5055583;28;20227;-73
2024/04/02 11:30:05;;;;;;;4.80;1.90;;;12.20;99.90;;;;;;5054945;28;20287;-73
2024/04/02 11:32:32;;;;;;;2.20;2.00;;;12.20;99.90;;;;;;5054960;28;20250;-71
2024/04/02 11:35:00;;;;;;;3.53;1.90;;;12.30;99.90;;;;;;5054955;28;20249;-73
2024/04/02 11:37:29;;;;;;;3.85;2.28;;;12.30;99.90;;;;;;5054870;28;20196;-73
2024/04/02 11:39:55;;;;;;;5.10;2.28;;;12.40;99.90;;;;;;5054801;28;20663;-74
2024/04/02 11:42:24;;;;;;;4.28;2.83;;;12.40;99.90;;;;;;5055073;28;20219;-73
2024/04/02 11:44:51;;;;;;;7.72;2.10;;;12.50;99.90;;;;;;5054715;28;20227;-73
2024/04/02 11:47:18;;;;;;;4.03;1.95;;;12.60;99.90;;;;;;5055018;28;20234;-73
2024/04/02 11:49:44;;;;;;;2.55;2.00;;;12.60;99.90;;;;;;5054726;28;20199;-73
2024/04/02 11:52:11;;;;;;;3.03;1.98;;;12.60;99.90;;;;;;5054933;28;20203;-73
2024/04/02 11:54:37;;;;;;;3.05;2.20;;;12.50;99.90;;;;;;5054517;28;20199;-73
2024/04/02 12:00:07;;;;;;;4.40;1.63;;;12.60;99.90;;;;;;5054523;28;20195;-73
2024/04/02 12:02:34;;;;;;;2.17;2.00;;;12.60;99.90;;;;;;5054772;28;20219;-74
2024/04/02 12:05:01;;;;;;;2.83;1.67;;;12.60;99.90;;;;;;5054508;28;20237;-73
2024/04/02 12:07:29;;;;;;;2.60;2.10;;;12.60;99.90;;;;;;5054346;28;20667;-73
2024/04/02 12:09:56;;;;;;;2.00;1.90;;;12.60;99.90;;;;;;5054578;28;20283;-73
2024/04/02 12:12:23;;;;;;;2.90;2.13;;;12.60;99.90;;;;;;5054245;28;20305;-73
2024/04/02 12:14:51;;;;;;;4.22;2.85;;;12.60;99.90;;;;;;5054425;28;20329;-73
2024/04/02 12:17:18;;;;;;;3.85;1.70;;;12.70;99.90;;;;;;5054108;28;20206;-74
2024/04/02 12:19:45;;;;;;;3.63;1.73;;;12.80;99.90;;;;;;5053965;28;20274;-73
2024/04/02 12:22:12;;;;;;;3.17;1.40;;;12.90;99.90;;;;;;5053269;28;20195;-73
2024/04/02 12:24:38;;;;;;;6.78;1.95;;;13.00;99.90;;;;;;5054068;28;20231;-73
2024/04/02 12:27:05;;;;;;;1.65;1.55;;;13.00;99.90;;;;;;5054265;28;20647;-73
2024/04/02 12:29:31;;;;;;;1.98;1.67;;;13.10;99.90;;;;;;5053864;28;20286;-73
2024/04/02 12:32:00;;;;;;;2.60;1.80;;;13.10;99.90;;;;;;5054245;28;20256;-73
2024/04/02 12:34:27;;;;;;;2.55;2.08;;;13.10;99.90;;;;;;5054132;28;20199;-73
2024/04/02 12:36:54;;;;;;;3.45;1.90;;;13.20;99.90;;;;;;5053072;28;20436;-73
2024/04/02 12:39:20;;;;;;;2.00;1.55;;;13.40;99.90;;;;;;5053995;28;20234;-72
2024/04/02 12:41:48;;;;;;;2.97;1.98;;;13.40;99.90;;;;;;5053686;28;20656;-73
2024/04/02 12:44:14;;;;;;;5.57;2.20;;;13.50;99.90;;;;;;5053588;28;20254;-73
2024/04/02 12:46:41;;;;;;;2.50;2.05;;;13.50;99.90;;;;;;5053589;28;20206;-73
2024/04/02 12:49:09;;;;;;;5.20;1.98;;;13.50;99.90;;;;;;5053846;28;20294;-73
2024/04/02 12:51:37;;;;;;;1.60;1.50;;;13.40;99.90;;;;;;5053805;28;20207;-73
2024/04/02 12:54:03;;;;;;;1.73;1.63;;;13.40;99.90;;;;;;5053821;28;20233;-73
2024/04/02 12:56:31;;;;;;;2.75;1.90;;;13.30;99.90;;;;;;5053379;28;20290;-73
2024/04/02 12:58:57;;;;;;;3.35;1.98;;;13.30;99.90;;;;;;5053709;28;20234;-73